KMRJ

Iowa County Airport

Mineral Point, Wisconsin, USA
METAR KMRJ 232215Z AUTO 27013KT 10SM CLR 02/M01 A3020 RMK AO2
Observed Flight Rules
Feb-23 @ 22:15 UTC (22 minutes ago) Visual Flight Rules
Wind Visibility Clouds
270° at 13 knots 10 miles
  • Clear skies
Temperatures Readings
Current 2°C / 36°F
Dewpoint -1°C / 30°F
Humidity 81%
Altimeter 30.2" Hg
Pressure 1023 hPa
Elevation 359
METAR KMRJ 232215Z AUTO 27013KT 10SM CLR 02/M01 A3020 RMK AO2
Observed Flight Rules
Feb-23 @ 22:15 UTC
(22 minutes ago)
VFR
Wind Visibility
270° at 13 knots 10 miles
Clouds
  • Clear skies
Temperature Dewpoint
2°C / 36°F -1°C / 30°F
Humidity Altimeter Pressure
81% 30.2" Hg 1023 hPa